createdAt,value
2022-12-19T00:01:35.570Z,32.47
2022-12-19T00:04:08.430Z,31.77
2022-12-19T00:06:37.764Z,29.13
2022-12-19T00:09:05.627Z,32.10
2022-12-19T00:11:33.038Z,30.03
2022-12-19T00:14:00.333Z,32.60
2022-12-19T00:16:29.756Z,28.83
2022-12-19T00:18:59.434Z,30.53
2022-12-19T00:21:30.627Z,33.60
2022-12-19T00:23:58.221Z,30.70
2022-12-19T00:26:30.748Z,28.50
2022-12-19T00:29:00.010Z,26.67
2022-12-19T00:31:31.092Z,27.33
2022-12-19T00:33:57.960Z,33.93
2022-12-19T00:36:27.534Z,29.90
2022-12-19T00:38:56.685Z,30.17
2022-12-19T00:41:32.318Z,30.33
2022-12-19T00:44:01.799Z,32.60
2022-12-19T00:46:29.551Z,30.27
2022-12-19T00:48:56.229Z,28.27
2022-12-19T00:51:26.062Z,26.50
2022-12-19T00:53:54.493Z,29.07
2022-12-19T00:56:24.183Z,27.50
2022-12-19T00:58:50.990Z,24.97
2022-12-19T01:01:31.240Z,31.10
2022-12-19T01:04:27.292Z,29.17
2022-12-19T01:06:46.175Z,31.53
2022-12-19T01:09:13.859Z,32.57
2022-12-19T01:11:59.511Z,27.80
2022-12-19T01:14:26.292Z,29.53
2022-12-19T01:16:53.251Z,30.63
2022-12-19T01:19:20.431Z,30.37
2022-12-19T01:21:47.199Z,27.57
2022-12-19T01:24:16.320Z,28.70
2022-12-19T01:26:46.585Z,29.77
2022-12-19T01:29:13.305Z,30.47
2022-12-19T01:31:40.086Z,27.67
2022-12-19T01:34:06.876Z,26.10
2022-12-19T01:36:34.765Z,26.37
2022-12-19T01:39:07.167Z,28.43
2022-12-19T01:41:34.040Z,29.07
2022-12-19T01:44:05.919Z,27.70
2022-12-19T01:46:39.927Z,25.07
2022-12-19T01:49:15.938Z,26.97
2022-12-19T01:51:47.669Z,25.90
2022-12-19T01:54:22.546Z,26.23
2022-12-19T01:56:53.291Z,24.43
2022-12-19T01:59:26.567Z,27.27
2022-12-19T02:02:00.677Z,25.13
2022-12-19T02:04:32.362Z,25.17
2022-12-19T02:07:09.337Z,26.43
2022-12-19T02:09:51.910Z,27.03
2022-12-19T02:12:25.675Z,25.90
2022-12-19T02:14:54.355Z,26.03
2022-12-19T02:17:40.948Z,24.83
2022-12-19T02:20:23.896Z,26.63
2022-12-19T02:23:19.164Z,30.87
2022-12-19T02:25:56.760Z,26.47
2022-12-19T02:28:56.203Z,30.37
2022-12-19T02:31:31.207Z,27.80
2022-12-19T02:34:09.843Z,29.90
2022-12-19T02:37:12.039Z,29.20
2022-12-19T02:39:56.588Z,29.93
2022-12-19T02:42:31.846Z,31.60
2022-12-19T02:45:00.792Z,35.87
2022-12-19T02:47:29.938Z,29.53
2022-12-19T02:49:56.759Z,32.10
2022-12-19T02:52:23.490Z,29.77
2022-12-19T02:54:56.127Z,30.07
2022-12-19T02:57:33.688Z,27.47
2022-12-19T03:00:05.864Z,27.20
2022-12-19T03:02:41.837Z,29.30
2022-12-19T03:05:25.014Z,31.57
2022-12-19T03:08:20.941Z,27.33
2022-12-19T03:11:02.081Z,29.53
2022-12-19T03:13:37.636Z,31.67
2022-12-19T03:16:07.134Z,30.17
2022-12-19T03:18:34.232Z,29.40
2022-12-19T03:21:18.045Z,29.67
2022-12-19T03:23:46.635Z,27.97
2022-12-19T03:26:18.349Z,25.40
2022-12-19T03:29:06.966Z,28.40
2022-12-19T03:31:34.855Z,26.83
2022-12-19T03:34:08.800Z,26.90
2022-12-19T03:36:46.191Z,30.53
2022-12-19T03:39:14.751Z,31.90
2022-12-19T03:42:02.885Z,30.13
2022-12-19T03:44:35.415Z,33.10
2022-12-19T03:47:09.239Z,29.30
2022-12-19T03:49:36.786Z,31.43
2022-12-19T03:52:16.923Z,27.17
2022-12-19T03:54:54.810Z,28.73
2022-12-19T03:57:32.438Z,26.70
2022-12-19T04:00:06.568Z,27.87
2022-12-19T04:02:38.260Z,29.77
2022-12-19T04:05:09.286Z,28.33
2022-12-19T04:07:37.989Z,27.67
2022-12-19T04:10:07.929Z,29.23
2022-12-19T04:12:41.823Z,29.00
2022-12-19T04:15:09.400Z,26.60
2022-12-19T04:17:55.764Z,27.43
2022-12-19T04:20:27.026Z,28.77
2022-12-19T04:23:05.925Z,28.20
2022-12-19T04:25:37.703Z,28.33
2022-12-19T04:28:13.630Z,27.57
2022-12-19T04:30:42.595Z,28.03
2022-12-19T04:33:09.366Z,29.50
2022-12-19T04:35:36.657Z,29.57
2022-12-19T04:38:04.179Z,28.07
2022-12-19T04:40:31.303Z,26.50
2022-12-19T04:42:58.559Z,24.53
2022-12-19T04:45:25.366Z,28.80
2022-12-19T04:47:52.436Z,32.87
2022-12-19T04:50:19.190Z,29.13
2022-12-19T04:52:45.881Z,29.07
2022-12-19T04:55:12.599Z,26.73
2022-12-19T04:57:39.326Z,27.27
2022-12-19T05:00:08.594Z,27.00
2022-12-19T05:02:37.744Z,24.67
2022-12-19T05:05:04.911Z,26.10
2022-12-19T05:07:31.687Z,25.77
2022-12-19T05:09:58.355Z,28.77
2022-12-19T05:12:25.433Z,30.20
2022-12-19T05:14:52.251Z,29.07
2022-12-19T05:17:19.113Z,28.90
2022-12-19T05:19:45.782Z,28.37
2022-12-19T05:22:12.563Z,28.67
2022-12-19T05:24:39.333Z,29.90
2022-12-19T05:27:06.081Z,28.47
2022-12-19T05:29:32.903Z,31.80
2022-12-19T05:32:00.290Z,30.30
2022-12-19T05:34:27.018Z,30.67
2022-12-19T05:36:53.842Z,33.60
2022-12-19T05:39:20.619Z,29.50
2022-12-19T05:41:49.161Z,30.93
2022-12-19T05:44:16.868Z,34.47
2022-12-19T05:46:43.707Z,26.13
2022-12-19T05:49:10.616Z,27.90
2022-12-19T05:51:37.671Z,26.97
2022-12-19T05:54:04.624Z,30.83
2022-12-19T05:56:31.464Z,26.63
2022-12-19T05:58:58.233Z,27.97
2022-12-19T06:01:27.041Z,34.50
2022-12-19T06:03:55.106Z,31.77
2022-12-19T06:06:24.913Z,30.93
2022-12-19T06:08:59.423Z,30.80
2022-12-19T06:11:27.216Z,32.83
2022-12-19T06:13:54.201Z,31.67
2022-12-19T06:16:22.455Z,29.10
2022-12-19T06:18:50.663Z,30.70
2022-12-19T06:21:19.775Z,32.13
2022-12-19T06:23:47.409Z,32.20
2022-12-19T06:26:19.422Z,30.60
2022-12-19T06:28:48.178Z,30.53
2022-12-19T06:31:15.332Z,34.97
2022-12-19T06:33:42.330Z,31.13
2022-12-19T06:36:24.030Z,50.70
2022-12-19T06:38:51.391Z,31.40
2022-12-19T06:41:38.320Z,32.50
2022-12-19T06:44:07.515Z,32.03
2022-12-19T06:46:35.412Z,32.43
2022-12-19T06:49:02.759Z,33.17
2022-12-19T06:51:29.966Z,36.57
2022-12-19T06:53:56.966Z,36.57
2022-12-19T06:56:23.870Z,30.77
2022-12-19T06:58:51.232Z,31.73
2022-12-19T07:01:30.610Z,31.27
2022-12-19T07:03:57.550Z,31.27
2022-12-19T07:06:24.426Z,30.30
2022-12-19T07:08:51.228Z,31.03
2022-12-19T07:11:18.012Z,36.47
2022-12-19T07:13:44.764Z,35.87
2022-12-19T07:16:11.627Z,33.97
2022-12-19T07:18:40.321Z,33.93
2022-12-19T07:21:11.252Z,30.80
2022-12-19T07:23:38.687Z,32.50
2022-12-19T07:26:05.750Z,36.63
2022-12-19T07:28:34.794Z,32.63
2022-12-19T07:31:01.558Z,31.43
2022-12-19T07:33:28.304Z,34.73
2022-12-19T07:35:55.532Z,34.90
2022-12-19T07:38:22.313Z,32.83
2022-12-19T07:40:48.990Z,46.93
2022-12-19T07:43:15.893Z,48.57
2022-12-19T07:45:42.910Z,45.73
2022-12-19T07:48:10.161Z,35.03
2022-12-19T07:50:37.237Z,34.10
2022-12-19T07:53:04.117Z,35.10
2022-12-19T07:55:31.544Z,32.47
2022-12-19T07:57:59.697Z,35.33
2022-12-19T08:00:26.525Z,35.53
2022-12-19T08:02:53.442Z,36.33
2022-12-19T08:05:20.631Z,33.80
2022-12-19T08:07:47.487Z,36.77
2022-12-19T08:10:15.163Z,39.13
2022-12-19T08:12:42.318Z,42.97
2022-12-19T08:15:09.847Z,38.80
2022-12-19T08:17:41.341Z,34.50
2022-12-19T08:20:11.706Z,33.80
2022-12-19T08:22:38.626Z,33.83
2022-12-19T08:25:07.559Z,36.20
2022-12-19T08:27:35.127Z,39.03
2022-12-19T08:30:02.530Z,35.50
2022-12-19T08:32:29.589Z,36.80
2022-12-19T08:34:56.743Z,33.97
2022-12-19T08:37:23.700Z,37.77
2022-12-19T08:39:50.757Z,44.67
2022-12-19T08:42:17.712Z,36.63
2022-12-19T08:44:44.703Z,42.07
2022-12-19T08:47:11.493Z,38.23
2022-12-19T08:49:38.230Z,38.23
2022-12-19T08:52:04.955Z,34.67
2022-12-19T08:54:31.730Z,32.47
2022-12-19T08:56:58.809Z,33.50
2022-12-19T08:59:30.955Z,35.87
2022-12-19T09:02:00.650Z,32.80
2022-12-19T09:05:43.717Z,38.20
2022-12-19T09:07:16.166Z,36.63
2022-12-19T09:09:45.251Z,35.60
2022-12-19T09:12:14.262Z,36.87
2022-12-19T09:14:41.296Z,36.03
2022-12-19T09:17:08.831Z,33.57
2022-12-19T09:19:35.680Z,38.00
2022-12-19T09:22:02.766Z,35.00
2022-12-19T09:24:29.608Z,37.80
2022-12-19T09:26:56.396Z,37.00
2022-12-19T09:29:24.097Z,37.83
2022-12-19T09:31:55.633Z,33.97
2022-12-19T09:34:38.145Z,37.13
2022-12-19T09:37:07.885Z,32.07
2022-12-19T09:39:36.212Z,32.50
2022-12-19T09:42:26.377Z,36.90
2022-12-19T09:45:05.949Z,33.40
2022-12-19T09:47:39.195Z,36.90
2022-12-19T09:50:23.190Z,33.77
2022-12-19T09:52:59.682Z,34.73
2022-12-19T09:55:35.594Z,35.47
2022-12-19T09:58:08.108Z,34.80
2022-12-19T10:00:49.028Z,36.10
2022-12-19T10:03:29.328Z,38.03
2022-12-19T10:06:51.775Z,36.07
2022-12-19T10:10:36.281Z,35.83
2022-12-19T10:12:45.911Z,34.13
2022-12-19T10:14:56.907Z,34.67
2022-12-19T10:17:42.925Z,35.40
2022-12-19T10:20:21.817Z,35.93
2022-12-19T10:23:00.617Z,38.97
2022-12-19T10:25:54.310Z,35.00
2022-12-19T10:28:46.051Z,46.17
2022-12-19T10:31:40.669Z,50.77
2022-12-19T10:34:25.133Z,41.33
2022-12-19T10:40:01.668Z,43.03
2022-12-19T10:42:56.271Z,39.20
2022-12-19T10:45:32.823Z,34.97
2022-12-19T10:47:59.994Z,41.37
2022-12-19T10:50:29.881Z,43.17
2022-12-19T10:53:08.178Z,44.87
2022-12-19T10:55:46.665Z,40.30
2022-12-19T10:58:32.571Z,38.03
2022-12-19T11:01:15.710Z,41.10
2022-12-19T11:03:46.504Z,44.03
2022-12-19T11:06:38.447Z,38.00
2022-12-19T11:09:31.181Z,33.73
2022-12-19T11:13:07.415Z,38.53
2022-12-19T11:20:35.616Z,34.57
2022-12-19T11:20:42.860Z,35.90
2022-12-19T11:29:25.861Z,38.53
2022-12-19T11:30:09.509Z,37.97
2022-12-19T11:30:43.938Z,35.27
2022-12-19T11:32:42.976Z,38.40
2022-12-19T11:35:25.349Z,43.07
2022-12-19T11:38:06.071Z,36.23
2022-12-19T11:40:49.466Z,39.83
2022-12-19T11:43:55.312Z,39.03
2022-12-19T11:46:40.923Z,42.07
2022-12-19T11:49:28.532Z,41.77
2022-12-19T11:52:23.742Z,37.93
2022-12-19T11:55:15.761Z,42.77
2022-12-19T11:57:42.891Z,40.80
2022-12-19T12:00:16.289Z,36.20
2022-12-19T12:03:04.846Z,38.90
2022-12-19T12:05:46.756Z,49.30
2022-12-19T12:12:25.788Z,37.97
2022-12-19T12:19:39.128Z,39.90
2022-12-19T12:24:05.016Z,40.70
2022-12-19T12:30:59.451Z,35.30
2022-12-19T12:31:16.209Z,41.73
2022-12-19T12:31:20.597Z,43.23
2022-12-19T12:31:48.725Z,41.93
2022-12-19T12:31:48.870Z,44.63
2022-12-19T12:35:51.820Z,37.33
2022-12-19T12:37:54.075Z,42.33
2022-12-19T12:38:45.960Z,40.50
2022-12-19T12:41:43.632Z,42.07
2022-12-19T12:44:12.440Z,41.33
2022-12-19T12:47:15.406Z,39.40
2022-12-19T12:49:45.920Z,42.23
2022-12-19T12:52:20.533Z,36.77
2022-12-19T12:54:48.977Z,39.43
2022-12-19T12:57:26.657Z,41.83
2022-12-19T13:00:18.058Z,42.70
2022-12-19T13:02:50.377Z,42.57
2022-12-19T13:05:23.235Z,39.23
2022-12-19T13:07:54.809Z,38.27
2022-12-19T13:10:30.580Z,42.47
2022-12-19T13:13:42.555Z,42.93
2022-12-19T13:16:48.784Z,45.43
2022-12-19T13:19:30.880Z,43.33
2022-12-19T13:22:35.852Z,47.53
2022-12-19T13:25:02.813Z,39.83
2022-12-19T13:27:38.502Z,47.57
2022-12-19T13:30:12.602Z,43.73
2022-12-19T13:32:39.565Z,40.73
2022-12-19T13:36:29.618Z,48.77
2022-12-19T13:39:54.164Z,47.67
2022-12-19T13:41:59.558Z,42.40
2022-12-19T13:44:27.143Z,44.23
2022-12-19T13:46:55.979Z,51.60
2022-12-19T13:49:32.956Z,57.37
2022-12-19T13:52:04.587Z,47.43
2022-12-19T13:54:37.119Z,48.27
2022-12-19T13:57:31.812Z,49.67
2022-12-19T14:00:05.705Z,51.73
2022-12-19T14:02:44.733Z,51.80
2022-12-19T14:06:14.526Z,51.10
2022-12-19T14:08:21.824Z,45.70
2022-12-19T14:11:45.785Z,44.13
2022-12-19T14:14:14.975Z,45.97
2022-12-19T14:16:46.519Z,48.87
2022-12-19T14:19:25.021Z,51.30
2022-12-19T14:22:10.784Z,54.87
2022-12-19T14:24:41.401Z,53.63
2022-12-19T14:28:23.279Z,52.50
2022-12-19T14:30:28.110Z,48.17
2022-12-19T14:33:47.501Z,52.33
2022-12-19T14:36:06.823Z,54.23
2022-12-19T14:39:23.439Z,47.10
2022-12-19T14:41:46.729Z,54.17
2022-12-19T14:52:08.674Z,41.77
2022-12-19T14:53:51.636Z,43.83
2022-12-19T14:54:13.314Z,45.13
2022-12-19T14:54:31.033Z,36.77
2022-12-19T14:56:13.690Z,37.37
2022-12-19T14:58:56.011Z,38.60
2022-12-19T15:01:26.942Z,38.10
2022-12-19T15:04:47.988Z,38.50
2022-12-19T15:07:09.985Z,42.77
2022-12-19T15:11:03.132Z,37.53
2022-12-19T15:14:53.425Z,42.80
2022-12-19T15:16:26.597Z,39.03
2022-12-19T15:18:56.933Z,37.27
2022-12-19T15:21:24.149Z,35.70
2022-12-19T15:23:51.039Z,35.73
2022-12-19T15:26:20.610Z,35.13
2022-12-19T15:28:50.168Z,40.43
2022-12-19T15:31:24.312Z,36.50
2022-12-19T15:36:38.263Z,37.97
2022-12-19T15:39:05.555Z,41.87
2022-12-19T15:41:35.732Z,39.40
2022-12-19T15:44:15.668Z,35.20
2022-12-19T15:46:48.471Z,40.23
2022-12-19T15:49:18.074Z,39.30
2022-12-19T15:51:45.829Z,37.53
2022-12-19T15:54:47.267Z,42.03
2022-12-19T15:56:59.596Z,44.53
2022-12-19T15:59:37.504Z,40.10
2022-12-19T16:02:17.180Z,38.40
2022-12-19T16:04:45.761Z,35.47
2022-12-19T16:07:18.234Z,40.13
2022-12-19T16:09:45.293Z,38.23
2022-12-19T16:12:15.767Z,42.93
2022-12-19T16:14:43.311Z,41.27
2022-12-19T16:17:18.005Z,46.93
2022-12-19T16:19:44.885Z,43.07
2022-12-19T16:22:23.829Z,41.70
2022-12-19T16:24:52.039Z,37.83
2022-12-19T16:27:36.685Z,44.23
2022-12-19T16:30:19.259Z,39.37
2022-12-19T16:32:46.367Z,40.97
2022-12-19T16:35:23.896Z,47.33
2022-12-19T16:38:01.138Z,42.10
2022-12-19T16:40:28.063Z,43.07
2022-12-19T16:43:04.544Z,41.73
2022-12-19T16:45:33.579Z,40.60
2022-12-19T16:48:00.705Z,45.47
2022-12-19T16:50:30.920Z,53.30
2022-12-19T16:53:00.946Z,40.43
2022-12-19T16:55:27.765Z,55.77
2022-12-19T16:57:56.521Z,47.77
2022-12-19T17:00:24.454Z,46.60
2022-12-19T17:03:08.609Z,40.03
2022-12-19T17:05:35.590Z,41.47
2022-12-19T17:08:02.337Z,43.03
2022-12-19T17:10:33.796Z,40.33
2022-12-19T17:13:03.275Z,42.53
2022-12-19T17:15:36.787Z,42.13
2022-12-19T17:18:27.236Z,43.23
2022-12-19T17:20:54.156Z,44.37
2022-12-19T17:23:23.270Z,40.83
2022-12-19T17:25:50.419Z,37.90
2022-12-19T17:28:17.336Z,38.90
2022-12-19T17:30:53.963Z,42.13
2022-12-19T17:33:22.816Z,44.20
2022-12-19T17:35:49.782Z,47.77
2022-12-19T17:38:18.021Z,49.30
2022-12-19T17:40:45.526Z,46.30
2022-12-19T17:43:12.935Z,41.77
2022-12-19T17:45:40.727Z,42.77
2022-12-19T17:48:33.195Z,34.93
2022-12-19T17:51:00.243Z,37.20
2022-12-19T17:53:27.023Z,50.27
2022-12-19T17:55:53.872Z,38.13
2022-12-19T17:58:21.659Z,37.33
2022-12-19T18:00:49.874Z,36.73
2022-12-19T18:03:25.604Z,33.63
2022-12-19T18:05:54.596Z,32.63
2022-12-19T18:08:28.587Z,33.47
2022-12-19T18:10:58.479Z,42.23
2022-12-19T18:13:26.723Z,41.20
2022-12-19T18:15:57.202Z,38.00
2022-12-19T18:18:29.089Z,41.67
2022-12-19T18:20:56.976Z,34.57
2022-12-19T18:23:23.994Z,39.40
2022-12-19T18:25:56.088Z,40.73
2022-12-19T18:28:26.203Z,38.23
2022-12-19T18:30:59.500Z,38.33
2022-12-19T18:33:26.460Z,38.03
2022-12-19T18:35:53.271Z,43.93
2022-12-19T18:38:22.914Z,50.97
2022-12-19T18:40:52.036Z,56.23
2022-12-19T18:43:19.552Z,47.80
2022-12-19T18:45:50.454Z,54.50
2022-12-19T18:48:24.016Z,54.17
2022-12-19T18:50:51.101Z,49.27
2022-12-19T18:53:21.696Z,51.33
2022-12-19T18:55:49.102Z,43.43
2022-12-19T18:58:15.827Z,41.63
2022-12-19T19:00:42.652Z,38.77
2022-12-19T19:03:15.442Z,46.47
2022-12-19T19:05:43.031Z,42.90
2022-12-19T19:08:24.870Z,39.07
2022-12-19T19:10:53.838Z,43.77
2022-12-19T19:13:22.450Z,42.40
2022-12-19T19:15:54.835Z,43.70
2022-12-19T19:18:33.794Z,36.43
2022-12-19T19:21:02.428Z,34.70
2022-12-19T19:23:52.300Z,37.97
2022-12-19T19:26:19.129Z,40.17
2022-12-19T19:28:51.686Z,41.73
2022-12-19T19:31:21.418Z,50.43
2022-12-19T19:33:52.544Z,48.67
2022-12-19T19:36:23.335Z,56.67
2022-12-19T19:38:53.667Z,59.90
2022-12-19T19:41:20.719Z,55.57
2022-12-19T19:43:47.433Z,51.80
2022-12-19T19:46:14.340Z,53.70
2022-12-19T19:48:42.665Z,53.57
2022-12-19T19:51:09.788Z,51.20
2022-12-19T19:53:36.540Z,47.40
2022-12-19T19:56:04.984Z,54.47
2022-12-19T19:58:32.205Z,54.53
2022-12-19T20:00:59.465Z,51.20
2022-12-19T20:03:27.336Z,47.90
2022-12-19T20:06:02.105Z,51.10
2022-12-19T20:08:35.203Z,52.40
2022-12-19T20:11:06.014Z,43.93
2022-12-19T20:13:33.173Z,43.33
2022-12-19T20:16:06.614Z,48.30
2022-12-19T20:18:34.151Z,48.10
2022-12-19T20:21:01.021Z,45.83
2022-12-19T20:23:28.205Z,43.90
2022-12-19T20:25:59.889Z,43.33
2022-12-19T20:28:26.745Z,47.37
2022-12-19T20:30:53.587Z,45.90
2022-12-19T20:33:20.428Z,42.70
2022-12-19T20:35:47.160Z,40.23
2022-12-19T20:38:14.054Z,41.73
2022-12-19T20:40:40.747Z,41.70
2022-12-19T20:43:07.595Z,38.83
2022-12-19T20:45:34.483Z,40.93
2022-12-19T20:48:01.432Z,43.03
2022-12-19T20:50:28.272Z,49.93
2022-12-19T20:52:55.754Z,35.33
2022-12-19T20:55:22.649Z,37.87
2022-12-19T20:57:49.504Z,35.60
2022-12-19T21:00:17.986Z,38.90
2022-12-19T21:03:25.908Z,42.27
2022-12-19T21:05:31.657Z,43.47
2022-12-19T21:07:58.381Z,49.10
2022-12-19T21:10:25.117Z,54.60
2022-12-19T21:12:52.004Z,60.03
2022-12-19T21:15:18.954Z,51.87
2022-12-19T21:17:45.775Z,47.40
2022-12-19T21:20:13.743Z,56.53
2022-12-19T21:22:41.100Z,52.63
2022-12-19T21:25:08.540Z,56.23
2022-12-19T21:27:35.302Z,51.93
2022-12-19T21:30:02.036Z,55.80
2022-12-19T21:32:28.928Z,57.60
2022-12-19T21:34:55.661Z,57.63
2022-12-19T21:37:24.357Z,52.50
2022-12-19T21:39:51.144Z,49.40
2022-12-19T21:42:18.094Z,50.80
2022-12-19T21:44:44.924Z,50.20
2022-12-19T21:47:11.922Z,53.87
2022-12-19T21:49:38.918Z,49.33
2022-12-19T21:52:05.718Z,52.37
2022-12-19T21:54:32.622Z,42.23
2022-12-19T21:57:00.165Z,45.97
2022-12-19T21:59:27.257Z,48.97
2022-12-19T22:01:55.107Z,46.40
2022-12-19T22:04:27.488Z,47.47
2022-12-19T22:06:54.590Z,49.23
2022-12-19T22:09:22.960Z,43.90
2022-12-19T22:11:49.858Z,45.50
2022-12-19T22:14:17.730Z,45.83
2022-12-19T22:16:44.776Z,45.87
2022-12-19T22:19:15.016Z,49.47
2022-12-19T22:21:41.854Z,48.23
2022-12-19T22:24:12.383Z,44.53
2022-12-19T22:26:39.275Z,44.93
2022-12-19T22:29:08.763Z,45.77
2022-12-19T22:31:39.037Z,45.07
2022-12-19T22:34:10.334Z,43.97
2022-12-19T22:36:39.795Z,41.63
2022-12-19T22:39:09.769Z,44.37
2022-12-19T22:41:37.285Z,42.17
2022-12-19T22:44:05.273Z,44.20
2022-12-19T22:46:34.927Z,47.87
2022-12-19T22:49:05.105Z,51.73
2022-12-19T22:51:33.555Z,76.47
2022-12-19T22:54:00.729Z,54.10
2022-12-19T22:56:30.396Z,44.73
2022-12-19T22:59:00.914Z,42.30
2022-12-19T23:01:31.051Z,46.80
2022-12-19T23:04:00.090Z,39.77
2022-12-19T23:06:28.659Z,47.03
2022-12-19T23:08:55.761Z,46.30
2022-12-19T23:11:31.928Z,45.67
2022-12-19T23:14:00.495Z,45.60
2022-12-19T23:16:27.766Z,41.77
2022-12-19T23:18:54.727Z,42.10
2022-12-19T23:21:24.436Z,45.00
2022-12-19T23:23:53.249Z,46.13
2022-12-19T23:26:26.442Z,40.30
2022-12-19T23:28:56.877Z,37.27
2022-12-19T23:31:24.256Z,45.60
2022-12-19T23:33:51.679Z,39.47
2022-12-19T23:36:38.031Z,42.33
2022-12-19T23:39:05.642Z,41.80
2022-12-19T23:41:32.477Z,41.63
2022-12-19T23:43:59.372Z,44.33
2022-12-19T23:46:27.460Z,40.63
2022-12-19T23:48:54.337Z,43.47
2022-12-19T23:51:25.226Z,42.03
2022-12-19T23:53:52.977Z,41.70
2022-12-19T23:56:28.199Z,46.60
2022-12-19T23:58:55.405Z,41.77
